sensor_id;sensor_type;location;lat;lon;timestamp;pressure;altitude;pressure_sealevel;temperature;humidity
8585;BME280;7180;52.742;11.420;2024-03-08T00:01:54;79088.53;;;-142.35;65.15
8585;BME280;7180;52.742;11.420;2024-03-08T00:04:20;79098.63;;;-142.35;65.11
8585;BME280;7180;52.742;11.420;2024-03-08T00:06:45;79088.53;;;-142.35;65.41
8585;BME280;7180;52.742;11.420;2024-03-08T00:09:11;79078.44;;;-142.35;65.42
8585;BME280;7180;52.742;11.420;2024-03-08T00:11:37;79066.34;;;-142.35;65.11
8585;BME280;7180;52.742;11.420;2024-03-08T00:14:02;79064.31;;;-142.35;65.21
8585;BME280;7180;52.742;11.420;2024-03-08T00:16:27;79072.41;;;-142.35;65.41
8585;BME280;7180;52.742;11.420;2024-03-08T00:18:52;79084.50;;;-142.35;65.63
8585;BME280;7180;52.742;11.420;2024-03-08T00:21:18;79092.56;;;-142.35;65.50
8585;BME280;7180;52.742;11.420;2024-03-08T00:23:43;79102.66;;;-142.35;65.96
8585;BME280;7180;52.742;11.420;2024-03-08T00:26:09;79110.72;;;-142.35;65.73
8585;BME280;7180;52.742;11.420;2024-03-08T00:28:34;79116.78;;;-142.35;66.00
8585;BME280;7180;52.742;11.420;2024-03-08T00:31:00;79116.78;;;-142.35;66.05
8585;BME280;7180;52.742;11.420;2024-03-08T00:33:25;79124.84;;;-142.35;66.18
8585;BME280;7180;52.742;11.420;2024-03-08T00:35:52;79132.91;;;-142.35;66.02
8585;BME280;7180;52.742;11.420;2024-03-08T00:38:17;79130.91;;;-142.35;66.32
8585;BME280;7180;52.742;11.420;2024-03-08T00:40:44;79132.91;;;-142.35;66.18
8585;BME280;7180;52.742;11.420;2024-03-08T00:43:09;79140.97;;;-142.35;66.28
8585;BME280;7180;52.742;11.420;2024-03-08T00:45:34;79147.03;;;-142.35;66.30
8585;BME280;7180;52.742;11.420;2024-03-08T00:47:59;79145.03;;;-142.35;66.73
8585;BME280;7180;52.742;11.420;2024-03-08T00:50:25;79153.09;;;-142.35;66.67
8585;BME280;7180;52.742;11.420;2024-03-08T00:52:50;79161.16;;;-142.35;66.68
8585;BME280;7180;52.742;11.420;2024-03-08T00:55:16;79167.22;;;-142.35;67.10
8585;BME280;7180;52.742;11.420;2024-03-08T00:57:41;79181.34;;;-142.35;67.21
8585;BME280;7180;52.742;11.420;2024-03-08T01:00:07;79183.34;;;-142.35;67.25
8585;BME280;7180;52.742;11.420;2024-03-08T01:02:36;79181.34;;;-142.35;66.99
8585;BME280;7180;52.742;11.420;2024-03-08T01:05:02;79181.34;;;-142.35;67.22
8585;BME280;7180;52.742;11.420;2024-03-08T01:07:29;79179.31;;;-142.35;67.15
8585;BME280;7180;52.742;11.420;2024-03-08T01:09:54;79187.38;;;-142.35;67.33
8585;BME280;7180;52.742;11.420;2024-03-08T01:12:19;79185.38;;;-142.35;67.35
8585;BME280;7180;52.742;11.420;2024-03-08T01:14:45;79185.38;;;-142.35;67.38
8585;BME280;7180;52.742;11.420;2024-03-08T01:17:10;79183.34;;;-142.35;67.28
8585;BME280;7180;52.742;11.420;2024-03-08T01:19:37;79179.31;;;-142.35;67.38
8585;BME280;7180;52.742;11.420;2024-03-08T01:22:02;79177.28;;;-142.35;67.47
8585;BME280;7180;52.742;11.420;2024-03-08T01:24:28;79175.28;;;-142.35;67.40
8585;BME280;7180;52.742;11.420;2024-03-08T01:26:54;79173.25;;;-142.35;67.60
8585;BME280;7180;52.742;11.420;2024-03-08T01:29:19;79169.22;;;-142.35;67.67
8585;BME280;7180;52.742;11.420;2024-03-08T01:31:44;79175.28;;;-142.35;67.59
8585;BME280;7180;52.742;11.420;2024-03-08T01:34:10;79177.28;;;-142.35;67.84
8585;BME280;7180;52.742;11.420;2024-03-08T01:36:35;79187.38;;;-142.35;67.81
8585;BME280;7180;52.742;11.420;2024-03-08T01:39:02;79193.44;;;-142.35;67.90
8585;BME280;7180;52.742;11.420;2024-03-08T01:41:33;79203.53;;;-142.35;67.93
8585;BME280;7180;52.742;11.420;2024-03-08T01:43:58;79209.56;;;-142.35;68.07
8585;BME280;7180;52.742;11.420;2024-03-08T01:46:24;79205.53;;;-142.35;68.21
8585;BME280;7180;52.742;11.420;2024-03-08T01:48:49;79209.56;;;-142.35;68.44
8585;BME280;7180;52.742;11.420;2024-03-08T01:51:15;79209.56;;;-142.35;68.35
8585;BME280;7180;52.742;11.420;2024-03-08T01:53:42;79213.59;;;-142.35;68.49
8585;BME280;7180;52.742;11.420;2024-03-08T01:56:11;79213.59;;;-142.35;68.54
8585;BME280;7180;52.742;11.420;2024-03-08T01:58:38;79217.63;;;-142.35;68.68
8585;BME280;7180;52.742;11.420;2024-03-08T02:01:04;79223.69;;;-142.35;68.78
8585;BME280;7180;52.742;11.420;2024-03-08T02:03:29;79223.69;;;-142.35;68.72
8585;BME280;7180;52.742;11.420;2024-03-08T02:05:56;79221.69;;;-142.35;69.03
8585;BME280;7180;52.742;11.420;2024-03-08T02:08:24;79221.69;;;-142.35;68.78
8585;BME280;7180;52.742;11.420;2024-03-08T02:10:49;79223.69;;;-142.35;68.92
8585;BME280;7180;52.742;11.420;2024-03-08T02:13:16;79229.75;;;-142.35;69.11
8585;BME280;7180;52.742;11.420;2024-03-08T02:15:54;79221.69;;;-142.35;69.30
8585;BME280;7180;52.742;11.420;2024-03-08T02:18:19;79227.72;;;-142.35;69.11
8585;BME280;7180;52.742;11.420;2024-03-08T02:20:55;79233.78;;;-142.35;69.54
8585;BME280;7180;52.742;11.420;2024-03-08T02:23:22;79233.78;;;-142.35;69.39
8585;BME280;7180;52.742;11.420;2024-03-08T02:25:48;79231.75;;;-142.35;69.68
8585;BME280;7180;52.742;11.420;2024-03-08T02:28:14;79229.75;;;-142.35;69.47
8585;BME280;7180;52.742;11.420;2024-03-08T02:30:40;79233.78;;;-142.35;69.50
8585;BME280;7180;52.742;11.420;2024-03-08T02:33:05;79235.78;;;-142.35;69.43
8585;BME280;7180;52.742;11.420;2024-03-08T02:35:32;79237.81;;;-142.35;69.57
8585;BME280;7180;52.742;11.420;2024-03-08T02:37:57;79239.84;;;-142.35;69.76
8585;BME280;7180;52.742;11.420;2024-03-08T02:40:23;79241.84;;;-142.35;69.51
8585;BME280;7180;52.742;11.420;2024-03-08T02:42:48;79241.84;;;-142.35;69.54
8585;BME280;7180;52.742;11.420;2024-03-08T02:45:14;79241.84;;;-142.35;69.33
8585;BME280;7180;52.742;11.420;2024-03-08T02:47:39;79245.88;;;-142.35;69.50
8585;BME280;7180;52.742;11.420;2024-03-08T02:50:05;79245.88;;;-142.35;69.29
8585;BME280;7180;52.742;11.420;2024-03-08T02:52:33;79249.91;;;-142.35;69.70
8585;BME280;7180;52.742;11.420;2024-03-08T02:54:58;79249.91;;;-142.35;69.68
8585;BME280;7180;52.742;11.420;2024-03-08T02:57:24;79249.91;;;-142.35;69.63
8585;BME280;7180;52.742;11.420;2024-03-08T02:59:49;79245.88;;;-142.35;69.49
8585;BME280;7180;52.742;11.420;2024-03-08T03:02:15;79243.88;;;-142.35;69.25
8585;BME280;7180;52.742;11.420;2024-03-08T03:04:41;79243.88;;;-142.35;69.49
8585;BME280;7180;52.742;11.420;2024-03-08T03:07:06;79241.84;;;-142.35;69.19
8585;BME280;7180;52.742;11.420;2024-03-08T03:09:32;79237.81;;;-142.35;69.21
8585;BME280;7180;52.742;11.420;2024-03-08T03:11:58;79239.84;;;-142.35;69.25
8585;BME280;7180;52.742;11.420;2024-03-08T03:14:23;79243.88;;;-142.35;69.27
8585;BME280;7180;52.742;11.420;2024-03-08T03:16:49;79253.97;;;-142.35;69.40
8585;BME280;7180;52.742;11.420;2024-03-08T03:19:15;79258.00;;;-142.35;69.56
8585;BME280;7180;52.742;11.420;2024-03-08T03:21:40;79262.03;;;-142.35;69.74
8585;BME280;7180;52.742;11.420;2024-03-08T03:24:08;79272.09;;;-142.35;69.39
8585;BME280;7180;52.742;11.420;2024-03-08T03:26:36;79278.16;;;-142.35;69.46
8585;BME280;7180;52.742;11.420;2024-03-08T03:29:04;79274.13;;;-142.35;69.55
8585;BME280;7180;52.742;11.420;2024-03-08T03:31:30;79278.16;;;-142.35;69.64
8585;BME280;7180;52.742;11.420;2024-03-08T03:33:56;79282.19;;;-142.35;69.90
8585;BME280;7180;52.742;11.420;2024-03-08T03:36:26;79282.19;;;-142.35;69.76
8585;BME280;7180;52.742;11.420;2024-03-08T03:38:53;79288.25;;;-142.35;69.80
8585;BME280;7180;52.742;11.420;2024-03-08T03:41:29;79286.22;;;-142.35;69.76
8585;BME280;7180;52.742;11.420;2024-03-08T03:43:54;79286.22;;;-142.35;69.96
8585;BME280;7180;52.742;11.420;2024-03-08T03:46:20;79290.25;;;-142.35;70.00
8585;BME280;7180;52.742;11.420;2024-03-08T03:48:45;79292.28;;;-142.35;69.92
8585;BME280;7180;52.742;11.420;2024-03-08T03:51:11;79286.22;;;-142.35;69.80
8585;BME280;7180;52.742;11.420;2024-03-08T03:53:36;79290.25;;;-142.35;69.96
8585;BME280;7180;52.742;11.420;2024-03-08T03:56:02;79288.25;;;-142.35;70.00
8585;BME280;7180;52.742;11.420;2024-03-08T03:58:27;79294.31;;;-142.35;69.98
8585;BME280;7180;52.742;11.420;2024-03-08T04:00:53;79292.28;;;-142.35;69.88
8585;BME280;7180;52.742;11.420;2024-03-08T04:03:18;79298.34;;;-142.35;69.95
8585;BME280;7180;52.742;11.420;2024-03-08T04:05:43;79296.31;;;-142.35;70.10
8585;BME280;7180;52.742;11.420;2024-03-08T04:08:10;79302.38;;;-142.35;69.83
8585;BME280;7180;52.742;11.420;2024-03-08T04:10:35;79314.47;;;-142.35;70.12
8585;BME280;7180;52.742;11.420;2024-03-08T04:13:00;79306.41;;;-142.35;70.34
8585;BME280;7180;52.742;11.420;2024-03-08T04:15:26;79298.34;;;-142.35;69.98
8585;BME280;7180;52.742;11.420;2024-03-08T04:17:51;79294.31;;;-142.35;69.88
8585;BME280;7180;52.742;11.420;2024-03-08T04:20:16;79292.28;;;-142.35;70.17
8585;BME280;7180;52.742;11.420;2024-03-08T04:22:42;79282.19;;;-142.35;69.92
8585;BME280;7180;52.742;11.420;2024-03-08T04:25:09;79278.16;;;-142.35;69.86
8585;BME280;7180;52.742;11.420;2024-03-08T04:27:35;79274.13;;;-142.35;69.86
8585;BME280;7180;52.742;11.420;2024-03-08T04:30:01;79274.13;;;-142.35;69.89
8585;BME280;7180;52.742;11.420;2024-03-08T04:32:26;79270.09;;;-142.35;69.86
8585;BME280;7180;52.742;11.420;2024-03-08T04:34:54;79268.06;;;-142.35;69.53
8585;BME280;7180;52.742;11.420;2024-03-08T04:37:19;79264.03;;;-142.35;69.64
8585;BME280;7180;52.742;11.420;2024-03-08T04:39:48;79258.00;;;-142.35;69.73
8585;BME280;7180;52.742;11.420;2024-03-08T04:42:14;79264.03;;;-142.35;69.88
8585;BME280;7180;52.742;11.420;2024-03-08T04:44:40;79251.94;;;-142.35;69.87
8585;BME280;7180;52.742;11.420;2024-03-08T04:47:05;79266.06;;;-142.35;69.69
8585;BME280;7180;52.742;11.420;2024-03-08T04:49:32;79258.00;;;-142.35;69.88
8585;BME280;7180;52.742;11.420;2024-03-08T04:52:03;79255.97;;;-142.35;70.37
8585;BME280;7180;52.742;11.420;2024-03-08T04:54:29;79258.00;;;-142.35;70.43
8585;BME280;7180;52.742;11.420;2024-03-08T04:56:54;79258.00;;;-142.35;70.35
8585;BME280;7180;52.742;11.420;2024-03-08T04:59:19;79260.00;;;-142.35;70.32
8585;BME280;7180;52.742;11.420;2024-03-08T05:01:45;79251.94;;;-142.35;70.22
8585;BME280;7180;52.742;11.420;2024-03-08T05:04:10;79251.94;;;-142.35;70.29
8585;BME280;7180;52.742;11.420;2024-03-08T05:06:35;79243.88;;;-142.35;70.32
8585;BME280;7180;52.742;11.420;2024-03-08T05:09:01;79249.91;;;-142.35;70.29
8585;BME280;7180;52.742;11.420;2024-03-08T05:11:41;79247.91;;;-142.35;70.20
8585;BME280;7180;52.742;11.420;2024-03-08T05:14:07;79249.91;;;-142.35;70.37
8585;BME280;7180;52.742;11.420;2024-03-08T05:16:33;79253.97;;;-142.35;70.32
8585;BME280;7180;52.742;11.420;2024-03-08T05:18:59;79251.94;;;-142.35;70.28
8585;BME280;7180;52.742;11.420;2024-03-08T05:21:24;79258.00;;;-142.35;70.31
8585;BME280;7180;52.742;11.420;2024-03-08T05:23:50;79258.00;;;-142.35;70.29
8585;BME280;7180;52.742;11.420;2024-03-08T05:26:16;79258.00;;;-142.35;70.22
8585;BME280;7180;52.742;11.420;2024-03-08T05:28:41;79260.00;;;-142.35;70.21
8585;BME280;7180;52.742;11.420;2024-03-08T05:31:06;79253.97;;;-142.35;70.46
8585;BME280;7180;52.742;11.420;2024-03-08T05:33:32;79251.94;;;-142.35;70.64
8585;BME280;7180;52.742;11.420;2024-03-08T05:35:59;79247.91;;;-142.35;70.37
8585;BME280;7180;52.742;11.420;2024-03-08T05:38:25;79249.91;;;-142.35;70.32
8585;BME280;7180;52.742;11.420;2024-03-08T05:40:51;79243.88;;;-142.35;70.29
8585;BME280;7180;52.742;11.420;2024-03-08T05:43:16;79241.84;;;-142.35;70.17
8585;BME280;7180;52.742;11.420;2024-03-08T05:45:44;79233.78;;;-142.35;70.25
8585;BME280;7180;52.742;11.420;2024-03-08T05:48:10;79235.78;;;-142.35;70.20
8585;BME280;7180;52.742;11.420;2024-03-08T05:50:37;79241.84;;;-142.35;70.38
8585;BME280;7180;52.742;11.420;2024-03-08T05:53:03;79247.91;;;-142.35;70.41
8585;BME280;7180;52.742;11.420;2024-03-08T05:55:32;79237.81;;;-142.35;70.13
8585;BME280;7180;52.742;11.420;2024-03-08T05:58:02;79231.75;;;-142.35;70.35
8585;BME280;7180;52.742;11.420;2024-03-08T06:00:28;79229.75;;;-142.35;70.47
8585;BME280;7180;52.742;11.420;2024-03-08T06:02:53;79221.69;;;-142.35;70.21
8585;BME280;7180;52.742;11.420;2024-03-08T06:05:18;79221.69;;;-142.35;70.15
8585;BME280;7180;52.742;11.420;2024-03-08T06:07:44;79223.69;;;-142.35;70.29
8585;BME280;7180;52.742;11.420;2024-03-08T06:10:10;79217.63;;;-142.35;70.19
8585;BME280;7180;52.742;11.420;2024-03-08T06:12:36;79209.56;;;-142.35;70.25
8585;BME280;7180;52.742;11.420;2024-03-08T06:15:06;79211.59;;;-142.35;70.16
8585;BME280;7180;52.742;11.420;2024-03-08T06:17:31;79211.59;;;-142.35;70.03
8585;BME280;7180;52.742;11.420;2024-03-08T06:19:56;79207.56;;;-142.35;70.04
8585;BME280;7180;52.742;11.420;2024-03-08T06:22:22;79205.53;;;-142.35;70.19
8585;BME280;7180;52.742;11.420;2024-03-08T06:24:47;79189.41;;;-142.35;69.95
8585;BME280;7180;52.742;11.420;2024-03-08T06:27:12;79183.34;;;-142.35;70.22
8585;BME280;7180;52.742;11.420;2024-03-08T06:29:39;79175.28;;;-142.35;69.81
8585;BME280;7180;52.742;11.420;2024-03-08T06:32:04;79171.25;;;-142.35;69.88
8585;BME280;7180;52.742;11.420;2024-03-08T06:34:32;79163.19;;;-142.35;70.15
8585;BME280;7180;52.742;11.420;2024-03-08T06:36:59;79155.09;;;-142.35;70.08
8585;BME280;7180;52.742;11.420;2024-03-08T06:39:26;79140.97;;;-142.35;70.03
8585;BME280;7180;52.742;11.420;2024-03-08T06:41:51;79140.97;;;-142.35;70.05
8585;BME280;7180;52.742;11.420;2024-03-08T06:44:16;79120.81;;;-142.35;69.74
8585;BME280;7180;52.742;11.420;2024-03-08T06:46:41;79110.72;;;-142.35;69.97
8585;BME280;7180;52.742;11.420;2024-03-08T06:49:07;79100.63;;;-142.35;70.02
8585;BME280;7180;52.742;11.420;2024-03-08T06:51:34;79088.53;;;-142.35;69.93
8585;BME280;7180;52.742;11.420;2024-03-08T06:53:59;79076.44;;;-142.35;69.75
8585;BME280;7180;52.742;11.420;2024-03-08T06:56:25;79044.16;;;-142.35;69.75
8585;BME280;7180;52.742;11.420;2024-03-08T06:58:50;79023.97;;;-142.35;69.33
8585;BME280;7180;52.742;11.420;2024-03-08T07:01:16;79028.00;;;-142.35;69.63
8585;BME280;7180;52.742;11.420;2024-03-08T07:03:42;79015.91;;;-142.35;69.34
8585;BME280;7180;52.742;11.420;2024-03-08T07:06:10;79011.88;;;-142.35;69.58
8585;BME280;7180;52.742;11.420;2024-03-08T07:08:36;78999.78;;;-142.35;69.55
8585;BME280;7180;52.742;11.420;2024-03-08T07:11:01;78975.56;;;-142.35;69.15
8585;BME280;7180;52.742;11.420;2024-03-08T07:13:27;78959.44;;;-142.35;69.37
8585;BME280;7180;52.742;11.420;2024-03-08T07:15:55;78945.31;;;-142.35;68.96
8585;BME280;7180;52.742;11.420;2024-03-08T07:18:20;78937.25;;;-142.35;69.21
8585;BME280;7180;52.742;11.420;2024-03-08T07:20:47;78915.06;;;-142.35;68.63
8585;BME280;7180;52.742;11.420;2024-03-08T07:23:12;78898.91;;;-142.35;68.46
8585;BME280;7180;52.742;11.420;2024-03-08T07:25:57;78890.84;;;-142.35;68.78
8585;BME280;7180;52.742;11.420;2024-03-08T07:28:23;78876.72;;;-142.35;68.51
8585;BME280;7180;52.742;11.420;2024-03-08T07:30:48;78854.53;;;-142.35;67.95
8585;BME280;7180;52.742;11.420;2024-03-08T07:33:13;78826.31;;;-142.35;68.02
8585;BME280;7180;52.742;11.420;2024-03-08T07:35:39;78790.00;;;-142.35;67.62
8585;BME280;7180;52.742;11.420;2024-03-08T07:38:08;78765.78;;;-142.35;67.40
8585;BME280;7180;52.742;11.420;2024-03-08T07:40:35;78727.47;;;-142.35;67.16
8585;BME280;7180;52.742;11.420;2024-03-08T07:43:01;78697.22;;;-142.35;66.80
8585;BME280;7180;52.742;11.420;2024-03-08T07:45:27;78677.03;;;-142.35;66.49
8585;BME280;7180;52.742;11.420;2024-03-08T07:47:53;78644.78;;;-142.35;66.07
8585;BME280;7180;52.742;11.420;2024-03-08T07:50:18;78628.63;;;-142.35;65.64
8585;BME280;7180;52.742;11.420;2024-03-08T07:52:44;78600.41;;;-142.35;65.60
8585;BME280;7180;52.742;11.420;2024-03-08T07:55:09;78584.25;;;-142.35;65.61
8585;BME280;7180;52.742;11.420;2024-03-08T07:57:35;78558.03;;;-142.35;65.31
8585;BME280;7180;52.742;11.420;2024-03-08T08:00:03;78535.84;;;-142.35;65.10
8585;BME280;7180;52.742;11.420;2024-03-08T08:02:32;78499.53;;;-142.35;64.94
8585;BME280;7180;52.742;11.420;2024-03-08T08:04:57;78475.34;;;-142.35;64.63
8585;BME280;7180;52.742;11.420;2024-03-08T08:07:24;78445.09;;;-142.35;64.21
8585;BME280;7180;52.742;11.420;2024-03-08T08:09:49;78428.97;;;-142.35;64.28
8585;BME280;7180;52.742;11.420;2024-03-08T08:12:14;78394.66;;;-142.35;64.05
8585;BME280;7180;52.742;11.420;2024-03-08T08:14:40;78366.44;;;-142.35;63.45
8585;BME280;7180;52.742;11.420;2024-03-08T08:17:06;78326.09;;;-142.35;63.65
8585;BME280;7180;52.742;11.420;2024-03-08T08:19:34;78295.84;;;-142.35;63.40
8585;BME280;7180;52.742;11.420;2024-03-08T08:22:00;78245.44;;;-142.35;62.80
8585;BME280;7180;52.742;11.420;2024-03-08T08:24:26;78225.25;;;-142.35;62.48
8585;BME280;7180;52.742;11.420;2024-03-08T08:26:52;78195.00;;;-142.35;62.20
8585;BME280;7180;52.742;11.420;2024-03-08T08:29:17;78162.75;;;-142.35;62.01
8585;BME280;7180;52.742;11.420;2024-03-08T08:31:43;78118.38;;;-142.35;61.79
8585;BME280;7180;52.742;11.420;2024-03-08T08:34:11;78084.09;;;-142.35;61.52
8585;BME280;7180;52.742;11.420;2024-03-08T08:36:39;78025.59;;;-142.35;61.17
8585;BME280;7180;52.742;11.420;2024-03-08T08:39:05;77991.31;;;-142.35;60.98
8585;BME280;7180;52.742;11.420;2024-03-08T08:41:37;77959.06;;;-142.35;60.43
8585;BME280;7180;52.742;11.420;2024-03-08T08:44:02;77930.81;;;-142.35;60.17
8585;BME280;7180;52.742;11.420;2024-03-08T08:46:28;77886.47;;;-142.35;59.85
8585;BME280;7180;52.742;11.420;2024-03-08T08:48:53;77862.25;;;-142.35;59.69
8585;BME280;7180;52.742;11.420;2024-03-08T08:51:19;77846.13;;;-142.35;59.80
8585;BME280;7180;52.742;11.420;2024-03-08T08:53:44;77809.84;;;-142.35;59.23
8585;BME280;7180;52.742;11.420;2024-03-08T08:56:11;77753.38;;;-142.35;59.10
8585;BME280;7180;52.742;11.420;2024-03-08T08:58:38;77713.03;;;-142.35;58.72
8585;BME280;7180;52.742;11.420;2024-03-08T09:01:04;77682.78;;;-142.35;58.36
8585;BME280;7180;52.742;11.420;2024-03-08T09:03:30;77628.34;;;-142.35;57.92
8585;BME280;7180;52.742;11.420;2024-03-08T09:05:55;77612.22;;;-142.35;57.94
8585;BME280;7180;52.742;11.420;2024-03-08T09:08:21;77584.00;;;-142.35;57.80
8585;BME280;7180;52.742;11.420;2024-03-08T09:10:46;77567.84;;;-142.35;57.79
8585;BME280;7180;52.742;11.420;2024-03-08T09:13:13;77531.56;;;-142.35;57.24
8585;BME280;7180;52.742;11.420;2024-03-08T09:15:39;77497.28;;;-142.35;57.08
8585;BME280;7180;52.742;11.420;2024-03-08T09:18:05;77446.88;;;-142.35;56.86
8585;BME280;7180;52.742;11.420;2024-03-08T09:20:31;77420.66;;;-142.35;56.65
8585;BME280;7180;52.742;11.420;2024-03-08T09:22:56;77382.38;;;-142.35;56.17
8585;BME280;7180;52.742;11.420;2024-03-08T09:25:22;77360.19;;;-142.35;56.08
8585;BME280;7180;52.742;11.420;2024-03-08T09:27:47;77346.06;;;-142.35;56.01
8585;BME280;7180;52.742;11.420;2024-03-08T09:30:13;77297.69;;;-142.35;55.82
8585;BME280;7180;52.742;11.420;2024-03-08T09:32:40;77249.28;;;-142.35;55.33
8585;BME280;7180;52.742;11.420;2024-03-08T09:35:06;77229.13;;;-142.35;55.10
8585;BME280;7180;52.742;11.420;2024-03-08T09:37:32;77215.00;;;-142.35;55.17
8585;BME280;7180;52.742;11.420;2024-03-08T09:39:59;77184.78;;;-142.35;54.62
8585;BME280;7180;52.742;11.420;2024-03-08T09:42:24;77166.63;;;-142.35;54.81
8585;BME280;7180;52.742;11.420;2024-03-08T09:44:50;77174.69;;;-142.35;54.96
8585;BME280;7180;52.742;11.420;2024-03-08T09:47:17;77140.41;;;-142.35;54.43
8585;BME280;7180;52.742;11.420;2024-03-08T09:49:43;77098.09;;;-142.35;54.47
8585;BME280;7180;52.742;11.420;2024-03-08T09:52:08;77063.81;;;-142.35;53.94
8585;BME280;7180;52.742;11.420;2024-03-08T09:54:35;77007.34;;;-142.35;53.45
8585;BME280;7180;52.742;11.420;2024-03-08T09:57:01;76938.81;;;-142.35;53.21
8585;BME280;7180;52.742;11.420;2024-03-08T09:59:29;76958.97;;;-142.35;53.48
8585;BME280;7180;52.742;11.420;2024-03-08T10:02:03;76918.66;;;-142.35;52.97
8585;BME280;7180;52.742;11.420;2024-03-08T10:04:29;76882.38;;;-142.35;52.77
8585;BME280;7180;52.742;11.420;2024-03-08T10:06:58;76833.97;;;-142.35;52.62
8585;BME280;7180;52.742;11.420;2024-03-08T10:09:24;76803.75;;;-142.35;52.19
8585;BME280;7180;52.742;11.420;2024-03-08T10:11:56;76733.19;;;-142.35;51.80
8585;BME280;7180;52.742;11.420;2024-03-08T10:14:21;76682.78;;;-142.35;51.63
8585;BME280;7180;52.742;11.420;2024-03-08T10:16:46;76640.47;;;-142.35;51.10
8585;BME280;7180;52.742;11.420;2024-03-08T10:19:12;76577.97;;;-142.35;50.51
8585;BME280;7180;52.742;11.420;2024-03-08T10:21:48;76590.06;;;-142.35;50.97
8585;BME280;7180;52.742;11.420;2024-03-08T10:24:14;76551.75;;;-142.35;50.85
8585;BME280;7180;52.742;11.420;2024-03-08T10:26:39;76505.41;;;-142.35;50.25
8585;BME280;7180;52.742;11.420;2024-03-08T10:29:04;76495.31;;;-142.35;50.17
8585;BME280;7180;52.742;11.420;2024-03-08T10:31:32;76569.91;;;-142.35;50.83
8585;BME280;7180;52.742;11.420;2024-03-08T10:33:58;76575.97;;;-142.35;50.88
8585;BME280;7180;52.742;11.420;2024-03-08T10:36:23;76489.28;;;-142.35;50.27
8585;BME280;7180;52.742;11.420;2024-03-08T10:38:51;76485.25;;;-142.35;50.06
8585;BME280;7180;52.742;11.420;2024-03-08T10:41:18;76414.69;;;-142.35;49.68
8585;BME280;7180;52.742;11.420;2024-03-08T10:46:49;76362.28;;;-142.35;49.33
8585;BME280;7180;52.742;11.420;2024-03-08T10:49:25;76295.78;;;-142.35;48.83
8585;BME280;7180;52.742;11.420;2024-03-08T10:51:51;76307.88;;;-142.35;49.15
8585;BME280;7180;52.742;11.420;2024-03-08T10:54:18;76255.47;;;-142.35;48.69
8585;BME280;7180;52.742;11.420;2024-03-08T10:56:45;76221.19;;;-142.35;48.34
8585;BME280;7180;52.742;11.420;2024-03-08T10:59:12;76225.22;;;-142.35;48.11
8585;BME280;7180;52.742;11.420;2024-03-08T11:01:38;76166.78;;;-142.35;48.14
8585;BME280;7180;52.742;11.420;2024-03-08T11:04:05;76174.84;;;-142.35;47.90
8585;BME280;7180;52.742;11.420;2024-03-08T11:06:41;76108.31;;;-142.35;47.62
8585;BME280;7180;52.742;11.420;2024-03-08T11:12:22;76086.16;;;-142.35;47.56
8585;BME280;7180;52.742;11.420;2024-03-08T11:14:54;76076.06;;;-142.35;47.33
8585;BME280;7180;52.742;11.420;2024-03-08T11:17:49;76031.75;;;-142.35;47.10
8585;BME280;7180;52.742;11.420;2024-03-08T11:20:18;76059.94;;;-142.35;47.14
8585;BME280;7180;52.742;11.420;2024-03-08T11:22:51;76017.63;;;-142.35;46.96
8585;BME280;7180;52.742;11.420;2024-03-08T11:25:41;76001.50;;;-142.35;46.65
8585;BME280;7180;52.742;11.420;2024-03-08T11:28:17;75955.16;;;-142.35;46.31
8585;BME280;7180;52.742;11.420;2024-03-08T11:33:35;75876.56;;;-142.35;45.98
8585;BME280;7180;52.742;11.420;2024-03-08T11:38:40;75860.44;;;-142.35;45.69
8585;BME280;7180;52.742;11.420;2024-03-08T11:41:05;75864.47;;;-142.35;45.99
8585;BME280;7180;52.742;11.420;2024-03-08T11:43:30;75864.47;;;-142.35;45.74
8585;BME280;7180;52.742;11.420;2024-03-08T11:46:08;75868.50;;;-142.35;45.84
8585;BME280;7180;52.742;11.420;2024-03-08T11:48:33;75880.59;;;-142.35;45.70
8585;BME280;7180;52.742;11.420;2024-03-08T11:51:01;75910.81;;;-142.35;46.08
8585;BME280;7180;52.742;11.420;2024-03-08T11:53:26;75830.19;;;-142.35;45.59
8585;BME280;7180;52.742;11.420;2024-03-08T11:55:52;75858.41;;;-142.35;45.66
8585;BME280;7180;52.742;11.420;2024-03-08T11:58:17;75757.66;;;-142.35;45.07
8585;BME280;7180;52.742;11.420;2024-03-08T12:00:43;75749.59;;;-142.35;45.09
8585;BME280;7180;52.742;11.420;2024-03-08T12:03:11;75840.28;;;-142.35;45.71
8585;BME280;7180;52.742;11.420;2024-03-08T12:05:37;75806.00;;;-142.35;45.33
8585;BME280;7180;52.742;11.420;2024-03-08T12:08:03;75791.91;;;-142.35;45.24
8585;BME280;7180;52.742;11.420;2024-03-08T12:10:30;75806.00;;;-142.35;45.21
8585;BME280;7180;52.742;11.420;2024-03-08T12:12:57;75773.78;;;-142.35;45.18
8585;BME280;7180;52.742;11.420;2024-03-08T12:15:26;75781.84;;;-142.35;45.15
8585;BME280;7180;52.742;11.420;2024-03-08T12:17:54;75781.84;;;-142.35;45.25
8585;BME280;7180;52.742;11.420;2024-03-08T12:20:25;75820.13;;;-142.35;45.44
8585;BME280;7180;52.742;11.420;2024-03-08T12:22:52;75767.72;;;-142.35;45.04
8585;BME280;7180;52.742;11.420;2024-03-08T12:25:18;75840.28;;;-142.35;45.60
8585;BME280;7180;52.742;11.420;2024-03-08T12:27:45;75935.00;;;-142.35;46.42
8585;BME280;7180;52.742;11.420;2024-03-08T12:30:44;75979.34;;;-142.35;46.22
8585;BME280;7180;52.742;11.420;2024-03-08T12:33:10;75930.97;;;-142.35;45.86
8585;BME280;7180;52.742;11.420;2024-03-08T12:35:37;75977.31;;;-142.35;46.26
8585;BME280;7180;52.742;11.420;2024-03-08T12:38:03;75926.94;;;-142.35;45.63
8585;BME280;7180;52.742;11.420;2024-03-08T12:40:32;75761.69;;;-142.35;44.83
8585;BME280;7180;52.742;11.420;2024-03-08T12:42:59;75816.09;;;-142.35;45.49
8585;BME280;7180;52.742;11.420;2024-03-08T12:45:25;75880.59;;;-142.35;45.83
8585;BME280;7180;52.742;11.420;2024-03-08T12:47:51;75910.81;;;-142.35;45.71
8585;BME280;7180;52.742;11.420;2024-03-08T12:50:17;75840.28;;;-142.35;45.46
8585;BME280;7180;52.742;11.420;2024-03-08T12:52:43;75711.28;;;-142.35;44.62
8585;BME280;7180;52.742;11.420;2024-03-08T12:55:08;75693.16;;;-142.35;44.42
8585;BME280;7180;52.742;11.420;2024-03-08T12:57:35;75697.19;;;-142.35;44.73
8585;BME280;7180;52.742;11.420;2024-03-08T13:00:03;75701.22;;;-142.35;44.63